Airfield :
LOGIN :

Register | Disclaimer

   EN    FR    IT 

 










Legend :    VFR   Marginal VFR   IFR   Intensive IFR   Very Intensive IFR
Visi :
Ceiling :
>= 8 km
>= 3000ft
5 to 8 km
1000 to 3000 ft
1500m to 5 km
500 to 1000 ft
800 to 1500m
200 to 500 ft
< 800m
< 200 ft
Symbols :   Thunderstorms  Fog  Heavy snow  Heavy precipitations  Wind > 20 kt
SIGMETs :     Misc.  Thunderstorms  Icing  Turbulence  Mountain Waves  Volcanic Ashes







- Airport Elevation : 90 ft
- IATA code : NTE
- Download approach charts


LFRS - Nantes

CURRENT METAR :
  • 270030Z AUTO 03005KT 360V060 CAVOK 06/02 Q1033 NOSIG

EXPIRED METARs :
  • 270000Z AUTO 04006KT CAVOK 07/02 Q1033 NOSIG
  • 262330Z AUTO 04006KT 010V070 CAVOK 07/03 Q1033 NOSIG
  • 262300Z AUTO 02006KT CAVOK 07/03 Q1033 NOSIG
  • 262230Z AUTO 03005KT 350V070 CAVOK 08/03 Q1033 NOSIG
  • 262200Z AUTO 02006KT 340V060 CAVOK 08/03 Q1033 NOSIG

TAF TAF LFRS
Valid from the 27 at 00:00 until the 28 at 06:00 UTC


262300Z 2700/2806 04006KT CAVOK
ATIS : +33 2 40 05 12 74
No reported NOTAMs for that airfield.



MET'MAP, your aeronautical weather chart ! - Copyright ORBIFLY December 2007 - Disclaimer

ORBIFLY MET'MAP TEAM :

Programming & Development : Alexandra Zaïnal
Concept & Development : Baudouin d'Aumeries
Co-Development & Prog : Marc-Olivier Méhu
Technical & hardware support : Manuel Goepfert

Contact : metmap@orbifly.com




SOURCES & CREDITS :

   NOAA